Time;durP1;ratioP1;P1;durP2;ratioP2;P2;SDS_P1;SDS_P2;PMS_P1;PMS_P2;Temp;Humidity;BMP_temperature;BMP_pressure;BME280_temperature;BME280_humidity;BME280_pressure;Samples;Min_cycle;Max_cycle;Signal;HPM_P1;HPM_P2
2023/05/07 00:01:43;;;;;;;93.10;54.15;;;19.20;83.60;;;;;;4995429;28;95200;-46
2023/05/07 00:04:09;;;;;;;91.25;53.53;;;19.30;83.60;;;;;;4999206;28;96143;-43
2023/05/07 00:06:34;;;;;;;91.82;53.90;;;19.20;83.50;;;;;;5001967;28;94946;-44
2023/05/07 00:09:00;;;;;;;91.32;53.97;;;19.20;83.60;;;;;;4990052;28;97152;-47
2023/05/07 00:11:27;;;;;;;90.95;53.90;;;19.20;83.60;;;;;;4993407;28;95177;-43
2023/05/07 00:13:53;;;;;;;91.20;53.88;;;19.20;83.60;;;;;;4996482;28;94835;-43
2023/05/07 00:16:19;;;;;;;90.43;53.67;;;19.20;83.60;;;;;;4995171;28;94687;-45
2023/05/07 00:18:45;;;;;;;93.03;53.92;;;19.20;83.60;;;;;;4993499;28;98065;-46
2023/05/07 00:21:11;;;;;;;92.60;53.80;;;19.20;83.60;;;;;;4998720;28;94600;-47
2023/05/07 00:23:37;;;;;;;92.97;53.90;;;19.20;83.70;;;;;;4990707;28;94743;-45
2023/05/07 00:26:03;;;;;;;93.95;54.20;;;19.20;84.40;;;;;;4996666;28;95034;-43
2023/05/07 00:28:29;;;;;;;90.63;54.03;;;19.20;83.70;;;;;;4995338;28;96738;-47
2023/05/07 00:30:55;;;;;;;91.28;53.95;;;19.20;83.70;;;;;;4997321;28;95437;-45
2023/05/07 00:33:21;;;;;;;92.85;54.28;;;19.20;83.70;;;;;;4999704;28;95090;-45
2023/05/07 00:35:47;;;;;;;90.70;53.55;;;19.10;83.70;;;;;;4996931;28;95403;-48
2023/05/07 00:38:13;;;;;;;92.25;53.95;;;19.10;83.70;;;;;;4994353;28;94832;-43
2023/05/07 00:40:39;;;;;;;90.85;53.83;;;19.10;83.70;;;;;;4990265;28;94631;-44
2023/05/07 00:43:04;;;;;;;90.85;53.75;;;19.10;83.70;;;;;;4988965;28;96057;-45
2023/05/07 00:45:30;;;;;;;91.03;53.78;;;19.20;83.80;;;;;;4994702;28;94727;-46
2023/05/07 00:47:59;;;;;;;91.40;53.67;;;19.20;83.70;;;;;;4989255;28;94862;-45
2023/05/07 00:50:25;;;;;;;91.18;53.55;;;19.20;83.80;;;;;;4998155;28;95222;-44
2023/05/07 00:52:51;;;;;;;91.68;53.67;;;19.10;83.70;;;;;;5002704;28;96135;-44
2023/05/07 00:55:17;;;;;;;91.32;53.80;;;19.20;83.80;;;;;;4992255;28;95091;-44
2023/05/07 00:57:44;;;;;;;90.22;53.85;;;19.10;83.80;;;;;;4992029;28;94863;-43
2023/05/07 01:00:12;;;;;;;90.18;53.88;;;19.10;83.80;;;;;;4993935;28;95268;-44
2023/05/07 01:02:38;;;;;;;90.82;53.83;;;19.10;83.90;;;;;;4995137;28;95792;-45
2023/05/07 01:05:07;;;;;;;91.07;53.58;;;19.10;83.80;;;;;;4991979;28;99683;-47
2023/05/07 01:07:34;;;;;;;90.47;53.75;;;19.10;83.80;;;;;;4995025;28;96325;-43
2023/05/07 01:10:01;;;;;;;91.03;54.03;;;19.10;83.90;;;;;;4993763;28;95103;-44
2023/05/07 01:12:28;;;;;;;91.05;53.50;;;19.10;83.90;;;;;;4992898;28;94840;-44
2023/05/07 01:14:54;;;;;;;91.97;53.58;;;19.10;83.90;;;;;;4997921;28;95567;-46
2023/05/07 01:17:20;;;;;;;90.80;53.88;;;19.10;83.90;;;;;;4995286;28;96666;-45
2023/05/07 01:19:47;;;;;;;91.32;53.88;;;19.10;84.00;;;;;;4997927;28;95355;-43
2023/05/07 01:22:15;;;;;;;90.65;53.60;;;19.10;84.00;;;;;;4998781;28;95134;-43
2023/05/07 01:24:42;;;;;;;92.07;53.92;;;19.00;84.00;;;;;;4994385;28;95340;-53
2023/05/07 01:27:08;;;;;;;90.03;53.80;;;19.10;84.00;;;;;;4993390;28;99687;-42
2023/05/07 01:29:34;;;;;;;90.88;53.85;;;19.10;84.00;;;;;;4992989;28;95627;-43
2023/05/07 01:32:01;;;;;;;89.75;53.38;;;19.10;84.00;;;;;;5000290;28;94804;-42
2023/05/07 01:34:30;;;;;;;90.35;53.58;;;19.00;84.00;;;;;;4997140;28;94182;-47
2023/05/07 01:36:57;;;;;;;90.32;53.95;;;19.00;84.00;;;;;;4994862;28;95497;-48
2023/05/07 01:39:28;;;;;;;90.53;53.53;;;19.00;84.10;;;;;;4995505;28;95718;-46
2023/05/07 01:41:59;;;;;;;91.03;53.72;;;19.00;84.00;;;;;;4992886;28;95636;-46
2023/05/07 01:44:25;;;;;;;90.95;53.72;;;19.00;84.00;;;;;;4995705;28;94834;-43
2023/05/07 01:46:51;;;;;;;89.60;53.45;;;19.00;84.00;;;;;;4996959;28;96719;-45
2023/05/07 01:49:17;;;;;;;90.53;53.65;;;19.00;84.00;;;;;;4991062;28;96964;-42
2023/05/07 01:51:44;;;;;;;92.07;53.67;;;19.00;84.00;;;;;;4985999;28;95078;-45
2023/05/07 01:54:09;;;;;;;90.78;53.45;;;19.00;84.00;;;;;;4997416;28;96491;-44
2023/05/07 01:56:35;;;;;;;92.65;53.67;;;19.00;84.10;;;;;;4991452;28;99188;-44
2023/05/07 01:59:01;;;;;;;89.45;53.53;;;19.00;84.00;;;;;;5001788;28;94170;-45
2023/05/07 02:01:27;;;;;;;91.72;53.53;;;19.00;84.00;;;;;;4994776;28;94705;-45
2023/05/07 02:03:53;;;;;;;90.15;53.58;;;19.00;84.00;;;;;;4993618;28;94751;-45
2023/05/07 02:06:19;;;;;;;89.88;53.45;;;19.00;84.00;;;;;;4997508;28;95892;-43
2023/05/07 02:08:46;;;;;;;90.28;53.63;;;19.00;84.00;;;;;;4991192;28;95270;-43
2023/05/07 02:11:11;;;;;;;90.30;53.22;;;19.00;84.00;;;;;;4994649;28;94806;-44
2023/05/07 02:13:37;;;;;;;90.60;53.47;;;19.00;83.90;;;;;;4993572;28;95159;-44
2023/05/07 02:16:03;;;;;;;89.95;53.55;;;19.00;84.00;;;;;;4992471;28;96201;-43
2023/05/07 02:18:29;;;;;;;89.13;53.53;;;19.00;84.00;;;;;;5001231;28;94704;-42
2023/05/07 02:20:55;;;;;;;90.03;53.45;;;19.00;84.00;;;;;;4999575;28;94774;-45
2023/05/07 02:23:20;;;;;;;90.38;53.55;;;18.90;84.00;;;;;;4988459;28;95648;-41
2023/05/07 02:25:46;;;;;;;91.53;53.83;;;19.00;84.00;;;;;;4982660;28;95769;-45
2023/05/07 02:28:12;;;;;;;91.43;53.65;;;19.00;83.90;;;;;;4984947;28;95481;-44
2023/05/07 02:30:38;;;;;;;90.80;53.65;;;18.90;83.90;;;;;;4989371;28;96651;-45
2023/05/07 02:33:04;;;;;;;90.72;53.90;;;18.90;83.90;;;;;;4986035;28;96015;-42
2023/05/07 02:35:30;;;;;;;89.97;53.80;;;18.90;83.90;;;;;;4988891;28;95663;-42
2023/05/07 02:37:55;;;;;;;91.55;53.85;;;18.90;83.90;;;;;;4977461;28;96393;-41
2023/05/07 02:40:21;;;;;;;90.20;53.53;;;18.90;83.90;;;;;;4983377;28;94922;-42
2023/05/07 02:42:47;;;;;;;89.57;53.47;;;18.90;83.90;;;;;;4987719;28;95216;-42
2023/05/07 02:45:12;;;;;;;90.63;53.65;;;18.90;83.90;;;;;;4982707;28;99694;-42
2023/05/07 02:47:38;;;;;;;89.85;53.58;;;18.90;84.00;;;;;;4984910;28;94144;-45
2023/05/07 02:50:04;;;;;;;90.85;53.63;;;18.90;83.90;;;;;;4988934;28;94909;-46
2023/05/07 02:52:30;;;;;;;89.72;53.53;;;18.90;83.90;;;;;;4985576;28;96034;-43
2023/05/07 02:54:55;;;;;;;89.55;53.17;;;18.90;83.90;;;;;;4987973;28;96614;-43
2023/05/07 02:57:21;;;;;;;90.65;53.50;;;18.90;84.00;;;;;;4983594;28;96065;-44
2023/05/07 02:59:47;;;;;;;89.85;53.38;;;18.90;84.60;;;;;;4987707;28;95031;-43
2023/05/07 03:02:12;;;;;;;89.55;53.53;;;18.90;83.80;;;;;;4986042;28;94950;-44
2023/05/07 03:04:39;;;;;;;90.25;53.42;;;18.90;83.90;;;;;;4984454;28;95386;-44
2023/05/07 03:07:05;;;;;;;89.50;53.50;;;18.90;83.90;;;;;;4988447;28;95131;-43
2023/05/07 03:09:30;;;;;;;90.63;53.60;;;18.90;83.80;;;;;;4987667;28;95916;-45
2023/05/07 03:11:56;;;;;;;90.70;53.35;;;18.90;83.80;;;;;;4990719;28;94258;-44
2023/05/07 03:14:22;;;;;;;91.32;53.55;;;18.80;83.60;;;;;;4992534;28;94940;-43
2023/05/07 03:16:49;;;;;;;89.30;53.55;;;18.90;83.80;;;;;;4983997;28;100662;-45
2023/05/07 03:19:15;;;;;;;90.72;53.65;;;18.90;83.80;;;;;;4983528;28;98012;-43
2023/05/07 03:21:41;;;;;;;89.35;53.35;;;18.90;83.80;;;;;;4987327;28;100124;-42
2023/05/07 03:24:06;;;;;;;90.13;53.47;;;18.90;83.70;;;;;;4983159;28;96230;-46
2023/05/07 03:26:32;;;;;;;89.93;53.72;;;18.90;83.90;;;;;;4985347;28;95597;-43
2023/05/07 03:28:58;;;;;;;91.03;53.35;;;18.80;83.70;;;;;;4989337;28;95587;-44
2023/05/07 03:31:23;;;;;;;89.70;53.10;;;18.80;83.70;;;;;;4985369;28;101167;-42
2023/05/07 03:33:53;;;;;;;90.13;53.50;;;18.90;83.90;;;;;;4985966;28;95983;-43
2023/05/07 03:36:20;;;;;;;90.43;53.75;;;18.80;83.90;;;;;;4992503;28;94784;-44
2023/05/07 03:38:46;;;;;;;89.72;53.83;;;18.80;83.80;;;;;;4992118;28;94745;-48
2023/05/07 03:41:12;;;;;;;90.45;53.63;;;18.80;83.60;;;;;;4985910;28;96382;-43
2023/05/07 03:43:37;;;;;;;89.80;53.53;;;18.80;83.80;;;;;;4990014;28;100235;-43
2023/05/07 03:46:04;;;;;;;89.57;53.38;;;18.80;83.80;;;;;;4989925;28;96687;-46
2023/05/07 03:48:30;;;;;;;89.60;53.63;;;18.80;83.80;;;;;;4992030;28;94750;-44
2023/05/07 03:50:57;;;;;;;89.03;53.08;;;18.80;83.80;;;;;;4997805;28;95072;-44
2023/05/07 03:53:23;;;;;;;89.28;53.55;;;18.80;83.70;;;;;;4994524;28;95425;-45
2023/05/07 03:55:49;;;;;;;89.60;53.65;;;18.80;83.70;;;;;;4991421;28;97081;-43
2023/05/07 03:58:15;;;;;;;90.03;53.58;;;18.80;83.70;;;;;;4996578;28;95163;-42
2023/05/07 04:00:41;;;;;;;90.22;53.58;;;18.80;83.80;;;;;;4998895;28;94428;-43
2023/05/07 04:03:07;;;;;;;90.38;53.47;;;18.80;83.80;;;;;;4998080;28;99334;-43
2023/05/07 04:05:32;;;;;;;89.95;53.55;;;18.80;83.70;;;;;;4985618;28;95274;-44
2023/05/07 04:07:59;;;;;;;89.60;53.63;;;18.80;83.70;;;;;;4997391;28;99912;-46
2023/05/07 04:10:25;;;;;;;90.55;53.70;;;18.80;83.80;;;;;;5000869;28;96254;-43
2023/05/07 04:12:50;;;;;;;90.03;53.53;;;18.80;83.70;;;;;;4995523;28;94981;-45
2023/05/07 04:15:16;;;;;;;89.38;53.45;;;18.80;83.70;;;;;;4999533;28;94887;-45
2023/05/07 04:17:42;;;;;;;89.55;53.20;;;18.80;83.70;;;;;;4998775;28;95198;-45
2023/05/07 04:20:14;;;;;;;88.88;53.25;;;18.80;83.70;;;;;;4992708;28;94746;-43
2023/05/07 04:22:40;;;;;;;90.28;53.88;;;18.80;83.70;;;;;;4997419;28;96381;-43
2023/05/07 04:25:07;;;;;;;90.22;53.65;;;18.80;83.70;;;;;;4997623;28;94953;-44
2023/05/07 04:27:33;;;;;;;89.43;53.15;;;18.80;83.70;;;;;;4996936;28;96139;-46
2023/05/07 04:30:00;;;;;;;89.25;53.38;;;18.70;83.60;;;;;;4994307;28;94509;-47
2023/05/07 04:32:26;;;;;;;89.40;53.42;;;18.80;83.60;;;;;;4993530;28;96027;-43
2023/05/07 04:34:52;;;;;;;89.80;53.55;;;18.80;83.70;;;;;;4999994;28;95466;-44
2023/05/07 04:37:18;;;;;;;89.30;53.22;;;18.70;83.60;;;;;;4997764;28;94718;-49
2023/05/07 04:39:44;;;;;;;89.75;53.40;;;18.70;83.60;;;;;;4997611;28;94943;-47
2023/05/07 04:42:14;;;;;;;90.78;53.85;;;18.80;83.70;;;;;;5000429;28;95942;-47
2023/05/07 04:44:40;;;;;;;88.50;53.13;;;18.80;83.60;;;;;;4994930;28;95358;-44
2023/05/07 04:47:06;;;;;;;90.03;53.55;;;18.70;83.60;;;;;;5000904;28;95974;-46
2023/05/07 04:49:31;;;;;;;89.70;53.53;;;18.70;83.60;;;;;;4994319;28;93953;-44
2023/05/07 04:51:57;;;;;;;89.45;53.53;;;18.70;83.60;;;;;;4991573;28;95833;-46
2023/05/07 04:54:23;;;;;;;89.80;53.42;;;18.70;83.60;;;;;;4994553;28;95497;-47
2023/05/07 04:56:48;;;;;;;88.72;53.15;;;18.70;83.60;;;;;;4987458;28;97139;-45
2023/05/07 04:59:14;;;;;;;89.80;53.63;;;18.70;83.40;;;;;;4990579;28;94679;-46
2023/05/07 05:01:40;;;;;;;91.47;53.63;;;18.70;83.40;;;;;;4996879;28;94842;-45
2023/05/07 05:04:05;;;;;;;89.25;53.35;;;18.70;83.40;;;;;;4978441;28;95357;-46
2023/05/07 05:06:32;;;;;;;92.15;53.50;;;18.70;83.50;;;;;;4978626;28;95588;-47
2023/05/07 05:08:57;;;;;;;90.30;53.55;;;18.70;83.50;;;;;;4976799;28;94895;-47
2023/05/07 05:11:23;;;;;;;91.60;53.47;;;18.70;83.40;;;;;;4977933;28;95360;-45
2023/05/07 05:13:49;;;;;;;90.53;53.80;;;18.70;83.40;;;;;;4976717;28;94143;-45
2023/05/07 05:16:15;;;;;;;92.30;53.75;;;18.70;83.50;;;;;;4973322;28;96209;-46
2023/05/07 05:18:41;;;;;;;90.65;53.22;;;18.70;83.60;;;;;;4972394;28;94756;-47
2023/05/07 05:21:07;;;;;;;90.30;53.50;;;18.70;83.50;;;;;;4961904;28;97197;-47
2023/05/07 05:23:32;;;;;;;90.05;53.60;;;18.70;83.50;;;;;;4977036;28;97000;-46
2023/05/07 05:25:58;;;;;;;90.63;53.45;;;18.70;83.60;;;;;;4976137;28;95115;-46
2023/05/07 05:28:24;;;;;;;89.22;53.63;;;18.70;83.50;;;;;;4975196;28;94862;-46
2023/05/07 05:30:50;;;;;;;90.22;53.53;;;18.70;83.60;;;;;;4975735;28;99531;-44
2023/05/07 05:33:16;;;;;;;89.80;53.35;;;18.70;83.60;;;;;;4976800;28;95092;-45
2023/05/07 05:35:42;;;;;;;90.30;53.40;;;18.70;83.50;;;;;;4977193;28;94635;-44
2023/05/07 05:38:07;;;;;;;93.35;53.67;;;18.70;83.40;;;;;;4977544;28;94349;-43
2023/05/07 05:40:33;;;;;;;90.25;53.47;;;18.70;83.40;;;;;;4973583;28;96519;-47
2023/05/07 05:42:59;;;;;;;90.85;53.60;;;18.70;83.30;;;;;;4974463;28;95835;-47
2023/05/07 05:45:25;;;;;;;89.78;53.67;;;18.70;83.20;;;;;;4974983;28;96166;-45
2023/05/07 05:47:51;;;;;;;89.05;53.28;;;18.70;83.00;;;;;;4977278;28;97196;-46
2023/05/07 05:50:17;;;;;;;90.28;53.60;;;18.70;83.00;;;;;;4974667;28;94708;-45
2023/05/07 05:52:42;;;;;;;88.97;53.63;;;18.70;83.10;;;;;;4977810;28;94770;-44
2023/05/07 05:55:08;;;;;;;90.65;53.75;;;18.70;83.10;;;;;;4974362;28;94606;-45
2023/05/07 05:57:35;;;;;;;89.45;53.47;;;18.70;83.00;;;;;;4970288;28;94400;-47
2023/05/07 06:00:01;;;;;;;93.05;53.47;;;18.70;83.00;;;;;;4972394;28;95538;-49
2023/05/07 06:02:27;;;;;;;89.18;53.35;;;18.60;83.00;;;;;;4972775;28;99158;-47
2023/05/07 06:04:53;;;;;;;90.28;53.80;;;18.60;82.90;;;;;;4989240;28;96027;-44
2023/05/07 06:07:19;;;;;;;89.32;53.47;;;18.60;82.90;;;;;;4993749;28;95021;-44
2023/05/07 06:09:45;;;;;;;89.70;53.53;;;18.70;82.90;;;;;;4989733;28;95867;-45
2023/05/07 06:12:11;;;;;;;90.07;53.55;;;18.60;82.70;;;;;;4994903;28;96061;-46
2023/05/07 06:14:37;;;;;;;89.50;53.28;;;18.60;83.40;;;;;;4990297;28;95487;-46
2023/05/07 06:17:02;;;;;;;89.07;53.42;;;18.60;82.70;;;;;;4995793;28;94926;-45
2023/05/07 06:19:28;;;;;;;90.82;53.65;;;18.60;82.70;;;;;;4991835;28;94723;-46
2023/05/07 06:21:56;;;;;;;89.65;53.58;;;18.60;82.70;;;;;;4993959;28;96743;-46
2023/05/07 06:24:22;;;;;;;89.35;53.63;;;18.60;82.70;;;;;;4993814;28;95131;-44
2023/05/07 06:26:48;;;;;;;89.43;53.53;;;18.60;82.60;;;;;;4989862;28;95026;-49
2023/05/07 06:29:14;;;;;;;90.00;53.63;;;18.60;82.60;;;;;;4989279;28;95799;-46
2023/05/07 06:31:39;;;;;;;89.07;53.20;;;18.60;82.50;;;;;;4991509;28;94646;-45
2023/05/07 06:34:05;;;;;;;89.38;52.95;;;18.60;82.50;;;;;;4999217;28;95640;-45
2023/05/07 06:36:31;;;;;;;90.75;53.92;;;18.60;82.50;;;;;;4996442;28;95123;-45
2023/05/07 06:38:57;;;;;;;89.40;53.58;;;18.60;82.50;;;;;;4993064;28;96566;-43
2023/05/07 06:41:22;;;;;;;89.43;53.35;;;18.60;82.50;;;;;;4996414;28;95032;-44
2023/05/07 06:43:48;;;;;;;88.75;53.25;;;18.60;82.50;;;;;;5002115;28;94718;-43
2023/05/07 06:46:16;;;;;;;89.25;53.40;;;18.60;82.50;;;;;;4995874;28;96089;-45
2023/05/07 06:48:42;;;;;;;91.07;53.22;;;18.60;82.50;;;;;;4997845;28;94659;-43
2023/05/07 06:51:08;;;;;;;88.57;53.15;;;18.60;82.50;;;;;;4995491;28;94122;-45
2023/05/07 06:53:35;;;;;;;90.97;53.72;;;18.60;82.40;;;;;;4996053;28;94697;-46
2023/05/07 06:56:01;;;;;;;89.72;53.55;;;18.60;82.40;;;;;;4994541;28;95441;-44
2023/05/07 06:58:26;;;;;;;89.78;53.45;;;18.60;82.40;;;;;;4993777;28;96934;-42
2023/05/07 07:00:52;;;;;;;89.70;53.50;;;18.60;82.40;;;;;;4996953;28;95176;-48
2023/05/07 07:03:18;;;;;;;89.75;53.42;;;18.60;82.40;;;;;;4993510;28;94415;-46
2023/05/07 07:05:43;;;;;;;89.05;53.20;;;18.60;82.40;;;;;;4994918;28;94712;-48
2023/05/07 07:08:10;;;;;;;88.93;53.28;;;18.60;82.40;;;;;;4993513;28;94521;-46
2023/05/07 07:10:35;;;;;;;89.38;53.40;;;18.60;82.40;;;;;;4992319;28;95641;-49
2023/05/07 07:13:01;;;;;;;91.13;53.70;;;18.60;82.40;;;;;;5002396;28;95351;-44
2023/05/07 07:15:27;;;;;;;89.57;53.63;;;18.60;82.40;;;;;;4998257;28;94582;-46
2023/05/07 07:17:52;;;;;;;90.22;53.22;;;18.60;83.10;;;;;;4992746;28;95167;-46
2023/05/07 07:20:18;;;;;;;89.75;53.75;;;18.60;82.30;;;;;;4995709;28;94988;-46
2023/05/07 07:22:44;;;;;;;90.30;53.97;;;18.60;82.30;;;;;;4999177;28;95614;-46
2023/05/07 07:25:11;;;;;;;89.65;53.58;;;18.60;82.30;;;;;;4991756;28;95494;-44
2023/05/07 07:27:37;;;;;;;90.82;53.67;;;18.60;82.30;;;;;;4994434;28;96710;-48
2023/05/07 07:30:03;;;;;;;90.53;53.58;;;18.60;82.30;;;;;;4977657;28;97563;-45
2023/05/07 07:32:28;;;;;;;91.60;53.88;;;18.60;82.20;;;;;;4997628;28;99428;-48
2023/05/07 07:34:54;;;;;;;89.72;53.83;;;18.60;82.20;;;;;;4991312;28;96276;-46
2023/05/07 07:37:20;;;;;;;90.28;53.78;;;18.60;82.10;;;;;;4988630;28;94804;-46
2023/05/07 07:39:45;;;;;;;91.65;53.95;;;18.60;82.10;;;;;;4990653;28;95155;-47
2023/05/07 07:42:11;;;;;;;91.90;54.17;;;18.60;82.00;;;;;;4982969;28;95871;-45
2023/05/07 07:44:36;;;;;;;91.68;53.65;;;18.60;81.80;;;;;;4986258;28;95507;-49
2023/05/07 07:47:02;;;;;;;91.57;54.05;;;18.60;82.00;;;;;;4992704;28;96065;-45
2023/05/07 07:49:28;;;;;;;94.22;54.40;;;18.60;82.10;;;;;;4986609;28;98087;-44
2023/05/07 07:51:53;;;;;;;98.13;54.50;;;18.60;82.20;;;;;;4978805;28;94809;-44
2023/05/07 07:54:19;;;;;;;93.20;54.50;;;18.70;82.50;;;;;;4979798;28;95563;-44
2023/05/07 07:56:45;;;;;;;95.18;54.60;;;18.70;82.90;;;;;;4988781;28;95551;-43
2023/05/07 07:59:10;;;;;;;96.47;54.58;;;18.70;83.00;;;;;;4987398;28;95947;-45
2023/05/07 08:01:36;;;;;;;99.88;55.58;;;18.70;83.40;;;;;;4980220;28;98587;-44
2023/05/07 08:04:03;;;;;;;95.07;55.08;;;18.70;83.20;;;;;;4977230;28;98791;-45
2023/05/07 08:06:31;;;;;;;95.07;54.55;;;18.70;83.30;;;;;;4981214;28;95352;-43
2023/05/07 08:08:57;;;;;;;92.13;54.78;;;18.70;83.50;;;;;;4982200;27;95202;-45
2023/05/07 08:11:23;;;;;;;92.63;54.35;;;18.80;83.60;;;;;;4974899;28;96610;-49
2023/05/07 08:13:48;;;;;;;93.97;54.53;;;18.70;83.50;;;;;;4980058;28;95809;-46
2023/05/07 08:16:14;;;;;;;93.78;54.45;;;18.80;83.70;;;;;;4987162;28;95730;-47
2023/05/07 08:18:40;;;;;;;93.30;54.50;;;18.80;83.60;;;;;;4977807;28;95224;-45
2023/05/07 08:21:06;;;;;;;95.07;54.33;;;18.80;83.70;;;;;;4978213;28;95725;-45
2023/05/07 08:23:31;;;;;;;94.20;54.45;;;18.80;83.90;;;;;;4975613;28;95460;-46
2023/05/07 08:25:57;;;;;;;94.10;54.47;;;18.80;83.90;;;;;;4976372;28;100816;-44
2023/05/07 08:28:24;;;;;;;96.95;54.13;;;18.80;84.60;;;;;;4979795;28;93894;-45
2023/05/07 08:30:50;;;;;;;93.85;54.50;;;18.80;84.00;;;;;;4979334;28;100671;-43
2023/05/07 08:33:16;;;;;;;93.72;54.08;;;18.80;84.10;;;;;;4981762;28;94251;-43
2023/05/07 08:35:41;;;;;;;94.70;54.42;;;18.90;84.50;;;;;;4985819;28;95877;-44
2023/05/07 08:38:07;;;;;;;93.93;54.38;;;18.90;84.60;;;;;;4978833;28;96003;-43
2023/05/07 08:40:38;;;;;;;92.97;54.08;;;18.80;84.80;;;;;;4973421;28;95695;-45
2023/05/07 08:43:08;;;;;;;93.25;54.13;;;18.90;84.80;;;;;;4986231;28;95449;-46
2023/05/07 08:45:35;;;;;;;94.37;54.27;;;18.90;85.00;;;;;;4984376;28;95227;-44
2023/05/07 08:48:10;;;;;;;93.47;54.25;;;18.80;85.00;;;;;;4982554;28;95576;-45
2023/05/07 08:50:36;;;;;;;97.07;54.63;;;18.90;85.00;;;;;;4978582;28;95902;-47
2023/05/07 08:53:05;;;;;;;102.15;55.45;;;18.80;84.80;;;;;;4976352;28;95551;-43
2023/05/07 08:55:31;;;;;;;106.10;56.70;;;18.80;84.60;;;;;;4978473;28;99037;-44
2023/05/07 08:57:57;;;;;;;114.70;58.03;;;18.90;85.60;;;;;;4983463;28;96539;-44
2023/05/07 09:00:22;;;;;;;124.47;59.35;;;18.90;85.90;;;;;;4980433;28;96801;-45
2023/05/07 09:02:48;;;;;;;114.88;59.90;;;18.90;85.90;;;;;;4997099;28;95121;-45
2023/05/07 09:05:14;;;;;;;112.07;59.00;;;18.90;86.10;;;;;;4994990;28;95450;-45
2023/05/07 09:07:39;;;;;;;107.97;57.45;;;18.90;86.00;;;;;;4985485;28;96847;-43
2023/05/07 09:10:06;;;;;;;115.43;59.08;;;18.80;86.10;;;;;;4988116;28;94803;-44
2023/05/07 09:12:32;;;;;;;109.22;58.78;;;18.80;86.50;;;;;;4993843;28;95169;-45
2023/05/07 09:14:59;;;;;;;108.85;58.40;;;18.80;86.30;;;;;;4984910;28;100447;-45
2023/05/07 09:17:24;;;;;;;115.60;58.28;;;18.80;86.30;;;;;;4987661;28;96412;-48
2023/05/07 09:19:50;;;;;;;109.93;58.40;;;18.90;86.50;;;;;;4987256;28;94696;-44
2023/05/07 09:22:16;;;;;;;116.68;59.17;;;18.90;87.40;;;;;;4989234;28;95058;-46
2023/05/07 09:24:50;;;;;;;121.82;60.50;;;18.90;87.50;;;;;;4975082;28;96265;-45
2023/05/07 09:27:17;;;;;;;119.15;61.00;;;19.00;87.50;;;;;;4986349;28;95346;-56
2023/05/07 09:29:44;;;;;;;119.10;59.63;;;19.00;87.80;;;;;;4981370;28;97118;-45
2023/05/07 09:32:10;;;;;;;119.72;60.22;;;19.00;88.30;;;;;;4983204;28;99656;-47
2023/05/07 09:34:36;;;;;;;120.70;60.53;;;19.00;88.00;;;;;;4986167;28;95475;-49
2023/05/07 09:37:06;;;;;;;123.22;60.97;;;19.00;87.80;;;;;;4983768;28;95503;-44
2023/05/07 09:39:45;;;;;;;125.55;61.47;;;19.00;87.50;;;;;;4996367;28;94835;-44
2023/05/07 09:42:12;;;;;;;129.73;61.83;;;19.00;87.60;;;;;;4987795;28;94161;-45
2023/05/07 09:44:38;;;;;;;137.13;62.63;;;19.00;87.60;;;;;;4965379;28;97253;-47
2023/05/07 09:47:07;;;;;;;125.20;62.55;;;19.00;87.70;;;;;;4970228;28;96615;-47
2023/05/07 09:49:38;;;;;;;136.15;62.83;;;19.00;87.60;;;;;;4975703;28;96647;-46
2023/05/07 09:52:08;;;;;;;126.75;62.03;;;19.00;87.60;;;;;;4980515;28;95071;-48
2023/05/07 09:54:35;;;;;;;130.82;61.72;;;19.00;87.90;;;;;;4980902;28;95500;-49
2023/05/07 09:57:06;;;;;;;119.60;61.38;;;19.00;87.90;;;;;;4978060;28;95117;-46
2023/05/07 09:59:34;;;;;;;120.72;61.53;;;19.00;87.50;;;;;;4980621;28;95628;-48
2023/05/07 10:02:01;;;;;;;119.45;61.13;;;19.00;87.30;;;;;;4981548;28;95023;-49
2023/05/07 10:04:27;;;;;;;116.65;60.95;;;19.00;86.90;;;;;;4987174;28;94955;-48
2023/05/07 10:06:55;;;;;;;121.82;61.55;;;19.10;86.40;;;;;;4975448;28;95156;-49
2023/05/07 10:09:23;;;;;;;115.40;60.33;;;19.00;86.50;;;;;;4982086;28;95611;-47
2023/05/07 10:11:50;;;;;;;108.47;59.30;;;19.10;86.50;;;;;;4972151;28;97161;-47
2023/05/07 10:14:15;;;;;;;107.72;58.78;;;19.00;86.20;;;;;;4971990;28;96696;-52
2023/05/07 10:16:41;;;;;;;115.30;59.40;;;19.10;85.90;;;;;;4967885;28;97512;-48
2023/05/07 10:19:11;;;;;;;105.88;58.55;;;19.10;86.30;;;;;;4970420;28;97843;-46
2023/05/07 10:21:38;;;;;;;108.60;58.80;;;19.10;86.00;;;;;;4990496;28;94637;-46
2023/05/07 10:24:25;;;;;;;107.38;58.25;;;19.10;86.00;;;;;;4992582;28;95312;-47
2023/05/07 10:26:53;;;;;;;105.40;58.17;;;19.10;85.90;;;;;;4998982;28;95702;-49
2023/05/07 10:29:30;;;;;;;106.75;58.80;;;19.10;86.00;;;;;;4995441;28;94641;-47
2023/05/07 10:32:15;;;;;;;106.15;58.28;;;19.10;86.20;;;;;;4993841;28;95291;-49
2023/05/07 10:34:45;;;;;;;107.18;58.17;;;19.10;86.10;;;;;;4995262;28;94966;-48
2023/05/07 10:37:11;;;;;;;107.15;58.25;;;19.10;85.90;;;;;;4993738;28;95187;-46
2023/05/07 10:39:37;;;;;;;106.07;57.65;;;19.10;85.70;;;;;;4994631;28;95341;-46
2023/05/07 10:42:11;;;;;;;105.60;57.22;;;19.10;85.70;;;;;;4999341;28;95309;-47
2023/05/07 10:44:37;;;;;;;105.93;57.42;;;19.10;85.70;;;;;;4995197;28;95105;-46
2023/05/07 10:47:05;;;;;;;109.82;58.38;;;19.10;85.70;;;;;;4998723;28;95363;-46
2023/05/07 10:49:31;;;;;;;107.10;57.88;;;19.10;85.40;;;;;;5005822;28;94416;-46
2023/05/07 10:52:19;;;;;;;110.03;57.85;;;19.10;85.40;;;;;;4998669;28;95298;-48
2023/05/07 10:54:46;;;;;;;107.15;57.35;;;19.10;85.40;;;;;;4999905;28;94949;-48
2023/05/07 10:57:30;;;;;;;103.57;57.38;;;19.10;85.30;;;;;;5006645;28;95347;-49
2023/05/07 10:59:56;;;;;;;105.13;57.35;;;19.10;85.30;;;;;;5000710;28;94690;-48
2023/05/07 11:02:22;;;;;;;104.53;57.42;;;19.10;85.10;;;;;;5000225;28;96332;-46
2023/05/07 11:05:20;;;;;;;106.75;58.03;;;19.10;85.80;;;;;;4999848;28;96075;-49
2023/05/07 11:07:57;;;;;;;103.53;57.55;;;19.10;85.00;;;;;;5000225;28;95024;-47
2023/05/07 11:10:23;;;;;;;108.43;58.22;;;19.10;85.00;;;;;;4999571;28;94868;-46
2023/05/07 11:12:50;;;;;;;104.60;57.83;;;19.10;84.80;;;;;;5007059;28;94951;-48
2023/05/07 11:15:37;;;;;;;103.05;57.45;;;19.10;84.80;;;;;;5003744;28;94407;-45
2023/05/07 11:18:06;;;;;;;103.05;57.10;;;19.10;84.90;;;;;;5004610;28;94689;-46
2023/05/07 11:20:55;;;;;;;100.57;57.22;;;19.10;85.00;;;;;;5000428;28;94970;-49
2023/05/07 11:23:33;;;;;;;102.45;57.72;;;19.10;84.90;;;;;;4999539;28;94033;-47
2023/05/07 11:26:09;;;;;;;103.00;57.35;;;19.10;84.80;;;;;;4997676;28;94808;-48
2023/05/07 11:28:43;;;;;;;101.22;56.78;;;19.10;84.60;;;;;;5003250;28;96468;-43
2023/05/07 11:31:09;;;;;;;99.65;56.70;;;19.10;84.50;;;;;;4992784;28;96252;-45
2023/05/07 11:33:36;;;;;;;101.47;56.92;;;19.10;84.40;;;;;;5003355;28;95065;-45
2023/05/07 11:36:07;;;;;;;102.30;57.35;;;19.10;84.50;;;;;;4997947;28;95698;-43
2023/05/07 11:38:37;;;;;;;100.78;57.47;;;19.10;84.30;;;;;;5004597;28;94964;-43
2023/05/07 11:41:04;;;;;;;99.03;56.70;;;19.10;84.30;;;;;;5002966;28;94980;-43
2023/05/07 11:43:35;;;;;;;100.47;56.72;;;19.10;84.00;;;;;;5001751;28;94641;-44
2023/05/07 11:46:11;;;;;;;98.95;57.05;;;19.10;84.20;;;;;;5002196;28;96623;-44
2023/05/07 11:48:37;;;;;;;98.63;56.55;;;19.20;84.40;;;;;;5001143;28;97038;-45
2023/05/07 11:51:05;;;;;;;102.13;57.17;;;19.20;84.30;;;;;;5002120;28;94691;-49
2023/05/07 11:53:41;;;;;;;101.28;57.20;;;19.20;84.20;;;;;;5003410;28;95316;-48
2023/05/07 11:56:17;;;;;;;102.90;56.70;;;19.10;84.20;;;;;;4999700;28;98066;-48
2023/05/07 11:58:45;;;;;;;102.70;56.75;;;19.10;84.30;;;;;;5001590;28;94915;-50
2023/05/07 12:01:11;;;;;;;101.13;56.67;;;19.10;84.30;;;;;;4997789;28;94704;-47
2023/05/07 12:03:39;;;;;;;99.32;56.92;;;19.10;84.30;;;;;;4994244;28;95272;-46
2023/05/07 12:06:09;;;;;;;97.70;56.72;;;19.10;84.10;;;;;;4998209;28;95366;-47
2023/05/07 12:08:40;;;;;;;101.32;56.72;;;19.20;84.20;;;;;;4996766;28;96354;-47
2023/05/07 12:11:13;;;;;;;99.20;56.75;;;19.10;84.80;;;;;;4992993;28;94695;-46
2023/05/07 12:13:39;;;;;;;98.40;56.53;;;19.20;84.00;;;;;;5000783;28;94368;-47
2023/05/07 12:16:06;;;;;;;97.90;56.55;;;19.20;84.00;;;;;;4996428;28;94719;-50
2023/05/07 12:18:34;;;;;;;100.00;56.90;;;19.20;83.90;;;;;;5000141;28;96361;-44
2023/05/07 12:21:00;;;;;;;99.63;56.30;;;19.20;83.90;;;;;;4999838;28;96565;-52
2023/05/07 12:23:26;;;;;;;99.85;56.47;;;19.20;83.90;;;;;;4993480;28;94709;-50